Time,TemperatureF,DewpointF,PressureIn,WindDirection,WindDirectionDegrees,WindSpeedMPH,WindSpeedGustMPH,Humidity,HourlyPrecipIn,Conditions,Clouds,dailyrainin,SolarRadiationWatts/m^2,SoftwareType,DateUTC
2013-06-04 00:03:00,57.0,56.0,-100.00,East,86,1.0,2.0,95,0.00,,,0.09,0.000000,,2013-06-04 04:03:00,
2013-06-04 00:11:00,56.0,55.0,-100.00,South,183,0.0,1.0,97,0.00,,,0.09,0.000000,,2013-06-04 04:11:00,
2013-06-04 00:33:00,56.0,55.0,-100.00,South,183,0.0,1.0,97,0.00,,,0.09,0.000000,,2013-06-04 04:33:00,
2013-06-04 00:42:00,56.0,55.0,-100.00,South,183,0.0,1.0,97,0.00,,,0.09,0.000000,,2013-06-04 04:42:00,
2013-06-04 00:53:00,56.0,55.0,-100.00,South,183,0.0,1.0,97,0.00,,,0.09,0.000000,,2013-06-04 04:53:00,
2013-06-04 01:02:00,56.0,55.0,-100.00,South,183,0.0,1.0,97,0.00,,,0.09,0.000000,,2013-06-04 05:02:00,
2013-06-04 01:11:00,55.0,54.0,-100.00,WSW,240,0.0,1.0,98,0.00,,,0.09,0.000000,,2013-06-04 05:11:00,
2013-06-04 01:32:00,55.0,54.0,-100.00,WSW,240,0.0,1.0,98,0.00,,,0.09,0.000000,,2013-06-04 05:32:00,
2013-06-04 01:42:00,55.0,54.0,-100.00,WSW,240,0.0,1.0,98,0.00,,,0.09,0.000000,,2013-06-04 05:42:00,
2013-06-04 01:52:00,55.0,54.0,-100.00,WSW,240,0.0,1.0,98,0.00,,,0.09,0.000000,,2013-06-04 05:52:00,
2013-06-04 02:02:00,55.0,54.0,-100.00,WSW,240,0.0,1.0,98,0.00,,,0.09,0.000000,,2013-06-04 06:02:00,
2013-06-04 02:11:00,54.0,53.0,-100.00,SSW,206,0.0,0.0,98,0.00,,,0.09,0.000000,,2013-06-04 06:11:00,
2013-06-04 02:32:00,54.0,53.0,-100.00,SSW,206,0.0,0.0,98,0.00,,,0.09,0.000000,,2013-06-04 06:32:00,
2013-06-04 02:42:00,54.0,53.0,-100.00,SSW,206,0.0,0.0,98,0.00,,,0.09,0.000000,,2013-06-04 06:42:00,
2013-06-04 02:52:00,54.0,53.0,-100.00,SSW,206,0.0,0.0,98,0.00,,,0.09,0.000000,,2013-06-04 06:52:00,
2013-06-04 03:02:00,54.0,53.0,-100.00,SSW,206,0.0,0.0,98,0.00,,,0.09,0.000000,,2013-06-04 07:02:00,
2013-06-04 03:11:00,53.0,52.0,-100.00,West,270,0.0,0.0,98,0.00,,,0.09,0.000000,,2013-06-04 07:11:00,
2013-06-04 03:32:00,53.0,52.0,-100.00,West,270,0.0,0.0,98,0.00,,,0.09,0.000000,,2013-06-04 07:32:00,
2013-06-04 03:42:00,53.0,52.0,-100.00,West,270,0.0,0.0,98,0.00,,,0.09,0.000000,,2013-06-04 07:42:00,
2013-06-04 03:52:00,53.0,52.0,-100.00,West,270,0.0,0.0,98,0.00,,,0.09,0.000000,,2013-06-04 07:52:00,
2013-06-04 04:02:00,53.0,52.0,-100.00,West,270,0.0,0.0,98,0.00,,,0.09,0.000000,,2013-06-04 08:02:00,
2013-06-04 04:11:00,53.0,53.0,-100.00,SSE,158,0.0,2.0,99,0.00,,,0.09,0.000000,,2013-06-04 08:11:00,
2013-06-04 04:32:00,53.0,53.0,-100.00,SSE,158,0.0,2.0,99,0.00,,,0.09,0.000000,,2013-06-04 08:32:00,
2013-06-04 04:42:00,53.0,53.0,-100.00,SSE,158,0.0,2.0,99,0.00,,,0.09,0.000000,,2013-06-04 08:42:00,
2013-06-04 04:52:00,53.0,53.0,-100.00,SSE,158,0.0,2.0,99,0.00,,,0.09,0.000000,,2013-06-04 08:52:00,
2013-06-04 05:02:00,53.0,53.0,-100.00,SSE,158,0.0,2.0,99,0.00,,,0.09,0.000000,,2013-06-04 09:02:00,
2013-06-04 05:11:00,52.0,52.0,-100.00,North,2,0.0,0.0,99,0.00,,,0.09,0.000000,,2013-06-04 09:11:00,
2013-06-04 05:33:00,52.0,52.0,-100.00,North,2,0.0,0.0,99,0.00,,,0.09,0.000000,,2013-06-04 09:33:00,
2013-06-04 05:43:00,52.0,52.0,-100.00,North,2,0.0,0.0,99,0.00,,,0.09,0.000000,,2013-06-04 09:43:00,
2013-06-04 05:53:00,52.0,52.0,-100.00,North,2,0.0,0.0,99,0.00,,,0.09,0.000000,,2013-06-04 09:53:00,
2013-06-04 06:03:00,52.0,52.0,-100.00,North,2,0.0,0.0,99,0.00,,,0.09,0.000000,,2013-06-04 10:03:00,
2013-06-04 06:11:00,56.0,56.0,-100.00,SSW,210,3.0,6.0,99,0.00,,,0.09,0.000000,,2013-06-04 10:11:00,
2013-06-04 06:33:00,56.0,56.0,-100.00,SSW,210,3.0,6.0,99,0.00,,,0.09,0.000000,,2013-06-04 10:33:00,
2013-06-04 06:42:00,56.0,56.0,-100.00,SSW,210,3.0,6.0,99,0.00,,,0.09,0.000000,,2013-06-04 10:42:00,
2013-06-04 06:53:00,56.0,56.0,-100.00,SSW,210,3.0,6.0,99,0.00,,,0.09,0.000000,,2013-06-04 10:53:00,
2013-06-04 07:02:00,56.0,56.0,-100.00,SSW,210,3.0,6.0,99,0.00,,,0.09,0.000000,,2013-06-04 11:02:00,
2013-06-04 07:11:00,57.0,57.0,-100.00,WSW,250,3.0,8.0,99,0.00,,,0.09,16.000000,,2013-06-04 11:11:00,
2013-06-04 07:32:00,57.0,57.0,-100.00,WSW,250,3.0,8.0,99,0.00,,,0.09,16.000000,,2013-06-04 11:32:00,
2013-06-04 07:43:00,57.0,57.0,-100.00,WSW,250,3.0,8.0,99,0.00,,,0.09,16.000000,,2013-06-04 11:43:00,
2013-06-04 07:52:00,57.0,57.0,-100.00,WSW,250,3.0,8.0,99,0.00,,,0.09,16.000000,,2013-06-04 11:52:00,
2013-06-04 08:02:00,57.0,57.0,-100.00,WSW,250,3.0,8.0,99,0.00,,,0.09,16.000000,,2013-06-04 12:02:00,
2013-06-04 08:11:00,58.0,58.0,-100.00,SW,218,1.0,5.0,99,0.00,,,0.09,102.000000,,2013-06-04 12:11:00,
2013-06-04 08:32:00,58.0,58.0,-100.00,SW,218,1.0,5.0,99,0.00,,,0.09,102.000000,,2013-06-04 12:32:00,
2013-06-04 08:42:00,58.0,58.0,-100.00,SW,218,1.0,5.0,99,0.00,,,0.09,102.000000,,2013-06-04 12:42:00,
2013-06-04 08:53:00,58.0,58.0,-100.00,SW,218,1.0,5.0,99,0.00,,,0.09,102.000000,,2013-06-04 12:53:00,
2013-06-04 09:03:00,58.0,58.0,-100.00,SW,218,1.0,5.0,99,0.00,,,0.09,102.000000,,2013-06-04 13:03:00,
2013-06-04 09:11:00,62.0,61.0,-100.00,SW,219,2.0,6.0,95,0.00,,,0.09,282.000000,,2013-06-04 13:11:00,
2013-06-04 09:32:00,62.0,61.0,-100.00,SW,219,2.0,6.0,95,0.00,,,0.09,282.000000,,2013-06-04 13:32:00,
2013-06-04 09:42:00,62.0,61.0,-100.00,SW,219,2.0,6.0,95,0.00,,,0.09,282.000000,,2013-06-04 13:42:00,
2013-06-04 09:52:00,62.0,61.0,-100.00,SW,219,2.0,6.0,95,0.00,,,0.09,282.000000,,2013-06-04 13:52:00,
2013-06-04 10:02:00,62.0,61.0,-100.00,SW,219,2.0,6.0,95,0.00,,,0.09,282.000000,,2013-06-04 14:02:00,
2013-06-04 10:11:00,67.0,60.0,-100.00,South,171,3.0,7.0,77,0.00,,,0.01,709.000000,,2013-06-04 14:11:00,
2013-06-04 10:32:00,67.0,60.0,-100.00,South,171,3.0,7.0,77,0.00,,,0.01,709.000000,,2013-06-04 14:32:00,
2013-06-04 10:43:00,67.0,60.0,-100.00,South,171,3.0,7.0,77,0.00,,,0.01,709.000000,,2013-06-04 14:43:00,
2013-06-04 10:52:00,67.0,60.0,-100.00,South,171,3.0,7.0,77,0.00,,,0.01,709.000000,,2013-06-04 14:52:00,
2013-06-04 11:02:00,67.0,60.0,-100.00,South,171,3.0,7.0,77,0.00,,,0.01,709.000000,,2013-06-04 15:02:00,
2013-06-04 11:11:00,70.0,60.0,-100.00,South,171,4.0,9.0,70,0.00,,,0.00,959.000000,,2013-06-04 15:11:00,
2013-06-04 11:33:00,70.0,60.0,-100.00,South,171,4.0,9.0,70,0.00,,,0.00,959.000000,,2013-06-04 15:33:00,
2013-06-04 11:42:00,70.0,60.0,-100.00,South,171,4.0,9.0,70,0.00,,,0.00,959.000000,,2013-06-04 15:42:00,
2013-06-04 11:53:00,70.0,60.0,-100.00,South,171,4.0,9.0,70,0.00,,,0.00,959.000000,,2013-06-04 15:53:00,
2013-06-04 12:03:00,70.0,60.0,-100.00,South,171,4.0,9.0,70,0.00,,,0.00,959.000000,,2013-06-04 16:03:00,
2013-06-04 12:11:00,71.0,57.0,-100.00,South,171,4.0,9.0,62,0.00,,,0.00,1073.000000,,2013-06-04 16:11:00,
2013-06-04 12:33:00,71.0,57.0,-100.00,South,171,4.0,9.0,62,0.00,,,0.00,1073.000000,,2013-06-04 16:33:00,
2013-06-04 12:42:00,71.0,57.0,-100.00,South,171,4.0,9.0,62,0.00,,,0.00,1073.000000,,2013-06-04 16:42:00,
2013-06-04 12:53:00,71.0,57.0,-100.00,South,171,4.0,9.0,62,0.00,,,0.00,1073.000000,,2013-06-04 16:53:00,
2013-06-04 13:03:00,71.0,57.0,-100.00,South,171,4.0,9.0,62,0.00,,,0.00,1073.000000,,2013-06-04 17:03:00,
2013-06-04 13:11:00,70.0,54.0,-100.00,SE,132,3.0,9.0,57,0.00,,,0.00,851.000000,,2013-06-04 17:11:00,
2013-06-04 13:33:00,70.0,54.0,-100.00,SE,132,3.0,9.0,57,0.00,,,0.00,851.000000,,2013-06-04 17:33:00,
2013-06-04 13:42:00,70.0,54.0,-100.00,SE,132,3.0,9.0,57,0.00,,,0.00,851.000000,,2013-06-04 17:42:00,
2013-06-04 13:52:00,70.0,54.0,-100.00,SE,132,3.0,9.0,57,0.00,,,0.00,851.000000,,2013-06-04 17:52:00,
2013-06-04 14:02:00,70.0,54.0,-100.00,SE,132,3.0,9.0,57,0.00,,,0.00,851.000000,,2013-06-04 18:02:00,
2013-06-04 14:11:00,74.0,57.0,-100.00,SSE,165,3.0,9.0,55,0.00,,,0.00,855.000000,,2013-06-04 18:11:00,
2013-06-04 14:32:00,74.0,57.0,-100.00,SSE,165,3.0,9.0,55,0.00,,,0.00,855.000000,,2013-06-04 18:32:00,
2013-06-04 14:42:00,74.0,57.0,-100.00,SSE,165,3.0,9.0,55,0.00,,,0.00,855.000000,,2013-06-04 18:42:00,
2013-06-04 14:53:00,74.0,57.0,-100.00,SSE,165,3.0,9.0,55,0.00,,,0.00,855.000000,,2013-06-04 18:53:00,
2013-06-04 15:02:00,74.0,57.0,-100.00,SSE,165,3.0,9.0,55,0.00,,,0.00,855.000000,,2013-06-04 19:02:00,
2013-06-04 15:11:00,78.0,58.0,-100.00,SSW,199,3.0,8.0,50,0.00,,,0.00,1094.000000,,2013-06-04 19:11:00,
2013-06-04 15:33:00,78.0,58.0,-100.00,SSW,199,3.0,8.0,50,0.00,,,0.00,1094.000000,,2013-06-04 19:33:00,
2013-06-04 15:42:00,78.0,58.0,-100.00,SSW,199,3.0,8.0,50,0.00,,,0.00,1094.000000,,2013-06-04 19:42:00,
2013-06-04 15:52:00,78.0,58.0,-100.00,SSW,199,3.0,8.0,50,0.00,,,0.00,1094.000000,,2013-06-04 19:52:00,
2013-06-04 16:03:00,78.0,58.0,-100.00,SSW,199,3.0,8.0,50,0.00,,,0.00,1094.000000,,2013-06-04 20:03:00,
2013-06-04 16:11:00,76.0,57.0,-100.00,SE,138,2.0,7.0,51,0.00,,,0.00,759.000000,,2013-06-04 20:11:00,
2013-06-04 16:32:00,76.0,57.0,-100.00,SE,138,2.0,7.0,51,0.00,,,0.00,759.000000,,2013-06-04 20:32:00,
2013-06-04 16:42:00,76.0,57.0,-100.00,SE,138,2.0,7.0,51,0.00,,,0.00,759.000000,,2013-06-04 20:42:00,
2013-06-04 16:53:00,76.0,57.0,-100.00,SE,138,2.0,7.0,51,0.00,,,0.00,759.000000,,2013-06-04 20:53:00,
2013-06-04 17:02:00,76.0,57.0,-100.00,SE,138,2.0,7.0,51,0.00,,,0.00,759.000000,,2013-06-04 21:02:00,
2013-06-04 17:11:00,76.0,59.0,-100.00,South,191,3.0,9.0,55,0.00,,,0.00,697.000000,,2013-06-04 21:11:00,
2013-06-04 17:33:00,76.0,59.0,-100.00,South,191,3.0,9.0,55,0.00,,,0.00,697.000000,,2013-06-04 21:33:00,
2013-06-04 17:42:00,76.0,59.0,-100.00,South,191,3.0,9.0,55,0.00,,,0.00,697.000000,,2013-06-04 21:42:00,
2013-06-04 17:53:00,76.0,59.0,-100.00,South,191,3.0,9.0,55,0.00,,,0.00,697.000000,,2013-06-04 21:53:00,
2013-06-04 18:02:00,76.0,59.0,-100.00,South,191,3.0,9.0,55,0.00,,,0.00,697.000000,,2013-06-04 22:02:00,
2013-06-04 18:11:00,74.0,56.0,-100.00,SE,139,3.0,7.0,53,0.00,,,0.00,335.000000,,2013-06-04 22:11:00,
2013-06-04 18:33:00,74.0,56.0,-100.00,SE,139,3.0,7.0,53,0.00,,,0.00,335.000000,,2013-06-04 22:33:00,
2013-06-04 18:42:00,74.0,56.0,-100.00,SE,139,3.0,7.0,53,0.00,,,0.00,335.000000,,2013-06-04 22:42:00,
2013-06-04 18:52:00,74.0,56.0,-100.00,SE,139,3.0,7.0,53,0.00,,,0.00,335.000000,,2013-06-04 22:52:00,
2013-06-04 19:02:00,74.0,56.0,-100.00,SE,139,3.0,7.0,53,0.00,,,0.00,335.000000,,2013-06-04 23:02:00,
2013-06-04 19:11:00,73.0,57.0,-100.00,SW,214,4.0,6.0,57,0.00,,,0.00,335.000000,,2013-06-04 23:11:00,
2013-06-04 19:32:00,73.0,57.0,-100.00,SW,214,4.0,6.0,57,0.00,,,0.00,335.000000,,2013-06-04 23:32:00,
2013-06-04 19:42:00,73.0,57.0,-100.00,SW,214,4.0,6.0,57,0.00,,,0.00,335.000000,,2013-06-04 23:42:00,
2013-06-04 19:52:00,73.0,57.0,-100.00,SW,214,4.0,6.0,57,0.00,,,0.00,335.000000,,2013-06-04 23:52:00,
2013-06-04 20:02:00,73.0,57.0,-100.00,SW,214,4.0,6.0,57,0.00,,,0.00,335.000000,,2013-06-05 00:02:00,
2013-06-04 20:11:00,69.0,56.0,-100.00,South,177,2.0,6.0,64,0.00,,,0.00,85.000000,,2013-06-05 00:11:00,
2013-06-04 20:33:00,69.0,56.0,-100.00,South,177,2.0,6.0,64,0.00,,,0.00,85.000000,,2013-06-05 00:33:00,
2013-06-04 20:42:00,69.0,56.0,-100.00,South,177,2.0,6.0,64,0.00,,,0.00,85.000000,,2013-06-05 00:42:00,
2013-06-04 20:52:00,69.0,56.0,-100.00,South,177,2.0,6.0,64,0.00,,,0.00,85.000000,,2013-06-05 00:52:00,
2013-06-04 21:02:00,69.0,56.0,-100.00,South,177,2.0,6.0,64,0.00,,,0.00,85.000000,,2013-06-05 01:02:00,
2013-06-04 21:11:00,65.0,56.0,-100.00,SSE,152,0.0,4.0,73,0.00,,,0.00,7.000000,,2013-06-05 01:11:00,
2013-06-04 21:32:00,65.0,56.0,-100.00,SSE,152,0.0,4.0,73,0.00,,,0.00,7.000000,,2013-06-05 01:32:00,
2013-06-04 21:42:00,65.0,56.0,-100.00,SSE,152,0.0,4.0,73,0.00,,,0.00,7.000000,,2013-06-05 01:42:00,
2013-06-04 21:52:00,65.0,56.0,-100.00,SSE,152,0.0,4.0,73,0.00,,,0.00,7.000000,,2013-06-05 01:52:00,
2013-06-04 22:02:00,65.0,56.0,-100.00,SSE,152,0.0,4.0,73,0.00,,,0.00,7.000000,,2013-06-05 02:02:00,
2013-06-04 22:11:00,62.0,56.0,-100.00,NW,315,0.0,3.0,82,0.00,,,0.00,0.000000,,2013-06-05 02:11:00,
2013-06-04 22:32:00,62.0,56.0,-100.00,NW,315,0.0,3.0,82,0.00,,,0.00,0.000000,,2013-06-05 02:32:00,
2013-06-04 22:42:00,62.0,56.0,-100.00,NW,315,0.0,3.0,82,0.00,,,0.00,0.000000,,2013-06-05 02:42:00,
2013-06-04 22:52:00,62.0,56.0,-100.00,NW,315,0.0,3.0,82,0.00,,,0.00,0.000000,,2013-06-05 02:52:00,
2013-06-04 23:02:00,62.0,56.0,-100.00,NW,315,0.0,3.0,82,0.00,,,0.00,0.000000,,2013-06-05 03:02:00,
2013-06-04 23:11:00,60.0,57.0,-100.00,WNW,298,0.0,0.0,90,0.00,,,0.00,0.000000,,2013-06-05 03:11:00,
2013-06-04 23:33:00,60.0,57.0,-100.00,WNW,298,0.0,0.0,90,0.00,,,0.00,0.000000,,2013-06-05 03:33:00,
2013-06-04 23:43:00,60.0,57.0,-100.00,WNW,298,0.0,0.0,90,0.00,,,0.00,0.000000,,2013-06-05 03:43:00,
2013-06-04 23:53:00,60.0,57.0,-100.00,WNW,298,0.0,0.0,90,0.00,,,0.00,0.000000,,2013-06-05 03:53:00,